createdAt,value
2023-02-03T00:03:15.351Z,28.70
2023-02-03T00:08:17.902Z,29.70
2023-02-03T00:13:19.771Z,37.20
2023-02-03T00:18:21.664Z,25.97
2023-02-03T00:23:23.588Z,29.47
2023-02-03T00:28:25.456Z,40.60
2023-02-03T00:33:27.341Z,39.13
2023-02-03T00:38:29.268Z,37.47
2023-02-03T00:43:31.144Z,33.77
2023-02-03T00:48:33.048Z,26.13
2023-02-03T00:53:35.000Z,35.27
2023-02-03T00:58:36.907Z,37.10
2023-02-03T01:03:38.792Z,26.77
2023-02-03T01:08:40.780Z,34.90
2023-02-03T01:13:42.806Z,35.87
2023-02-03T01:18:44.791Z,39.83
2023-02-03T01:23:46.751Z,27.85
2023-02-03T01:28:53.304Z,36.67
2023-02-03T01:33:55.513Z,34.65
2023-02-03T01:38:57.385Z,35.83
2023-02-03T01:43:59.851Z,33.63
2023-02-03T01:49:07.675Z,37.25
2023-02-03T01:54:10.484Z,38.58
2023-02-03T01:59:12.433Z,38.00
2023-02-03T02:04:14.307Z,37.23
2023-02-03T02:09:16.218Z,37.43
2023-02-03T02:14:18.113Z,35.60
2023-02-03T02:19:44.363Z,39.93
2023-02-03T02:25:04.321Z,40.88
2023-02-03T02:30:36.920Z,39.65
2023-02-03T02:36:06.133Z,38.97
2023-02-03T02:41:10.815Z,42.92
2023-02-03T02:46:37.669Z,36.10
2023-02-03T02:51:39.738Z,39.88
2023-02-03T02:56:41.601Z,39.87
2023-02-03T03:01:43.505Z,33.67
2023-02-03T03:06:48.257Z,40.50
2023-02-03T03:12:02.115Z,38.17
2023-02-03T03:17:06.159Z,42.30
2023-02-03T03:22:09.299Z,42.42
2023-02-03T03:27:23.665Z,41.75
2023-02-03T03:32:25.553Z,37.65
2023-02-03T03:37:37.298Z,37.60
2023-02-03T03:42:45.751Z,42.63
2023-02-03T03:47:48.518Z,37.83
2023-02-03T03:58:00.964Z,39.65
2023-02-03T04:03:07.289Z,36.58
2023-02-03T04:08:09.331Z,37.05
2023-02-03T04:13:12.117Z,30.25
2023-02-03T04:18:14.715Z,39.17
2023-02-03T04:23:16.912Z,35.85
2023-02-03T04:28:19.022Z,35.65
2023-02-03T04:33:20.885Z,33.37
2023-02-03T04:38:22.671Z,30.53
2023-02-03T04:43:24.498Z,35.03
2023-02-03T04:48:26.382Z,37.60
2023-02-03T04:53:28.135Z,25.53
2023-02-03T04:58:29.884Z,36.25
2023-02-03T05:03:31.678Z,33.53
2023-02-03T05:08:33.427Z,35.40
2023-02-03T05:13:35.186Z,34.17
2023-02-03T05:18:37.008Z,36.17
2023-02-03T05:23:38.742Z,32.60
2023-02-03T05:28:40.493Z,31.23
2023-02-03T05:33:42.268Z,30.60
2023-02-03T05:38:44.053Z,28.08
2023-02-03T05:43:45.834Z,30.60
2023-02-03T05:48:47.618Z,29.37
2023-02-03T05:53:49.363Z,27.90
2023-02-03T05:58:51.097Z,30.97
2023-02-03T06:03:52.954Z,31.10
2023-02-03T06:08:54.792Z,27.30
2023-02-03T06:13:56.747Z,29.15
2023-02-03T06:18:58.490Z,24.70
2023-02-03T06:24:00.228Z,28.27
2023-02-03T06:29:02.053Z,27.55
2023-02-03T06:34:03.814Z,26.17
2023-02-03T06:39:05.548Z,28.15
2023-02-03T06:44:07.657Z,25.77
2023-02-03T06:49:09.408Z,23.95
2023-02-03T06:54:11.815Z,29.17
2023-02-03T06:59:13.813Z,29.92
2023-02-03T07:04:15.620Z,22.77
2023-02-03T07:09:17.378Z,26.03
2023-02-03T07:14:19.134Z,27.35
2023-02-03T07:19:20.878Z,25.20
2023-02-03T07:24:22.624Z,26.00
2023-02-03T07:29:24.404Z,24.30
2023-02-03T07:34:26.138Z,23.25
2023-02-03T07:39:27.909Z,23.67
2023-02-03T07:44:29.670Z,22.10
2023-02-03T07:49:31.419Z,23.88
2023-02-03T07:54:33.183Z,22.55
2023-02-03T07:59:34.911Z,20.88
2023-02-03T08:04:36.802Z,21.58
2023-02-03T08:09:38.622Z,25.20
2023-02-03T08:14:40.369Z,21.70
2023-02-03T08:19:42.107Z,23.08
2023-02-03T08:24:44.270Z,20.65
2023-02-03T08:29:46.045Z,20.40
2023-02-03T08:34:48.595Z,21.23
2023-02-03T08:39:50.880Z,18.90
2023-02-03T08:44:52.642Z,19.65
2023-02-03T08:49:54.376Z,21.50
2023-02-03T08:54:56.154Z,18.60
2023-02-03T08:59:57.886Z,21.65
2023-02-03T09:04:59.720Z,23.92
2023-02-03T09:10:01.494Z,22.80
2023-02-03T09:15:04.948Z,20.05
2023-02-03T09:20:07.390Z,22.10
2023-02-03T09:25:09.151Z,24.30
2023-02-03T09:30:11.672Z,22.60
2023-02-03T09:35:13.477Z,23.90
2023-02-03T09:40:28.220Z,19.67
2023-02-03T09:45:30.698Z,24.55
2023-02-03T09:50:33.927Z,23.02
2023-02-03T09:55:42.289Z,24.48
2023-02-03T10:00:51.579Z,22.95
2023-02-03T10:06:14.836Z,22.23
2023-02-03T10:11:22.255Z,23.73
2023-02-03T10:16:28.486Z,23.42
2023-02-03T10:21:39.282Z,21.15
2023-02-03T10:26:41.078Z,18.40
2023-02-03T10:31:42.979Z,17.95
2023-02-03T10:37:46.358Z,18.03
2023-02-03T10:42:48.203Z,19.55
2023-02-03T10:47:53.814Z,16.27
2023-02-03T10:53:20.137Z,18.73
2023-02-03T10:58:28.621Z,21.85
2023-02-03T11:03:30.430Z,18.38
2023-02-03T11:08:32.497Z,22.40
2023-02-03T11:13:34.304Z,19.77
2023-02-03T11:18:56.176Z,18.13
2023-02-03T11:24:05.082Z,17.08
2023-02-03T11:29:06.939Z,20.30
2023-02-03T11:34:19.562Z,24.07
2023-02-03T11:39:29.248Z,18.63
2023-02-03T11:44:31.026Z,20.20
2023-02-03T11:49:51.359Z,19.02
2023-02-03T11:55:29.291Z,19.65
2023-02-03T12:00:54.942Z,19.25
2023-02-03T12:06:14.525Z,18.38
2023-02-03T12:11:37.094Z,17.13
2023-02-03T12:16:47.897Z,24.05
2023-02-03T12:21:51.739Z,19.23
2023-02-03T12:27:24.323Z,19.17
2023-02-03T12:32:32.400Z,18.58
2023-02-03T12:37:39.949Z,18.95
2023-02-03T12:42:47.911Z,22.75
2023-02-03T12:48:01.068Z,17.42
2023-02-03T12:58:39.963Z,16.13
2023-02-03T13:03:56.151Z,16.65
2023-02-03T13:09:14.212Z,20.08
2023-02-03T13:14:23.210Z,18.33
2023-02-03T13:19:26.738Z,16.90
2023-02-03T13:24:28.682Z,17.33
2023-02-03T13:29:54.360Z,15.23
2023-02-03T13:35:33.240Z,14.77
2023-02-03T13:41:00.135Z,13.52
2023-02-03T13:46:02.111Z,15.25
2023-02-03T13:51:06.360Z,15.27
2023-02-03T13:56:09.055Z,17.55
2023-02-03T14:01:30.592Z,20.55
2023-02-03T14:06:38.472Z,19.33
2023-02-03T14:11:40.489Z,15.63
2023-02-03T14:16:54.677Z,16.13
2023-02-03T14:22:04.216Z,18.63
2023-02-03T14:27:16.375Z,21.77
2023-02-03T14:32:18.096Z,22.27
2023-02-03T14:37:23.644Z,20.10
2023-02-03T14:43:04.895Z,17.60
2023-02-03T14:48:11.350Z,19.67
2023-02-03T14:53:45.455Z,18.42
2023-02-03T15:04:13.914Z,20.05
2023-02-03T15:09:32.080Z,18.73
2023-02-03T15:14:33.919Z,21.85
2023-02-03T15:19:37.979Z,20.80
2023-02-03T15:24:39.823Z,23.88
2023-02-03T15:29:41.699Z,20.63
2023-02-03T15:34:52.205Z,20.43
2023-02-03T15:40:07.130Z,23.30
2023-02-03T15:45:29.366Z,22.23
2023-02-03T15:50:46.097Z,21.83
2023-02-03T15:55:52.442Z,23.27
2023-02-03T16:01:02.086Z,22.63
2023-02-03T16:06:25.511Z,22.23
2023-02-03T16:11:30.397Z,22.42
2023-02-03T16:17:02.755Z,23.80
2023-02-03T16:22:30.309Z,22.77
2023-02-03T16:27:33.554Z,22.80
2023-02-03T16:32:35.561Z,15.70
2023-02-03T16:37:43.799Z,20.10
2023-02-03T16:42:45.609Z,21.02
2023-02-03T16:47:47.396Z,16.67
2023-02-03T16:52:49.366Z,21.25
2023-02-03T16:57:51.178Z,20.50
2023-02-03T17:02:53.123Z,21.43
2023-02-03T17:07:55.044Z,17.37
2023-02-03T17:12:56.844Z,13.20
2023-02-03T17:17:58.896Z,8.10
2023-02-03T17:23:00.802Z,8.23
2023-02-03T17:28:06.267Z,9.17
2023-02-03T17:33:08.457Z,13.00
2023-02-03T17:38:13.288Z,14.30
2023-02-03T17:53:53.487Z,9.73
2023-02-03T17:58:56.328Z,9.63
2023-02-03T18:03:59.587Z,9.95
2023-02-03T18:09:08.502Z,9.77
2023-02-03T18:14:10.471Z,10.63
2023-02-03T18:19:13.749Z,8.80
2023-02-03T18:24:15.551Z,7.70
2023-02-03T18:29:17.900Z,8.07
2023-02-03T18:34:19.775Z,6.95
2023-02-03T18:39:21.637Z,6.40
2023-02-03T18:44:23.458Z,6.83
2023-02-03T18:49:25.521Z,9.07
2023-02-03T18:54:28.766Z,11.97
2023-02-03T18:59:32.275Z,11.82
2023-02-03T19:04:34.076Z,15.32
2023-02-03T19:09:35.863Z,9.53
2023-02-03T19:14:37.764Z,12.55
2023-02-03T19:19:39.575Z,9.17
2023-02-03T19:24:41.975Z,7.85
2023-02-03T19:29:43.911Z,8.73
2023-02-03T19:34:45.812Z,7.27
2023-02-03T19:39:47.592Z,6.17
2023-02-03T19:44:49.340Z,6.80
2023-02-03T19:49:51.081Z,10.53
2023-02-03T19:54:52.992Z,8.97
2023-02-03T19:59:54.865Z,6.63
2023-02-03T20:04:56.817Z,9.10
2023-02-03T20:09:58.921Z,7.57
2023-02-03T20:15:00.815Z,9.25
2023-02-03T20:20:02.682Z,8.37
2023-02-03T20:25:04.970Z,7.10
2023-02-03T20:30:07.252Z,5.53
2023-02-03T20:35:09.206Z,8.85
2023-02-03T20:40:15.962Z,5.47
2023-02-03T20:45:18.335Z,11.70
2023-02-03T20:50:25.023Z,10.65
2023-02-03T20:55:28.831Z,6.60
2023-02-03T21:00:30.899Z,6.17
2023-02-03T21:05:35.853Z,7.25
2023-02-03T21:10:37.750Z,6.65
2023-02-03T21:15:39.628Z,6.10
2023-02-03T21:20:41.498Z,7.33
2023-02-03T21:25:43.354Z,8.57
2023-02-03T21:30:45.256Z,7.33
2023-02-03T21:35:47.216Z,6.80
2023-02-03T21:40:49.127Z,7.37
2023-02-03T21:45:51.142Z,5.43
2023-02-03T21:50:57.199Z,6.60
2023-02-03T21:56:17.144Z,6.40
2023-02-03T22:01:19.850Z,5.85
2023-02-03T22:11:25.047Z,6.65
2023-02-03T22:16:26.968Z,6.75
2023-02-03T22:21:28.856Z,7.43
2023-02-03T22:26:30.722Z,4.53
2023-02-03T22:31:32.769Z,6.33
2023-02-03T22:36:34.787Z,8.45
2023-02-03T22:41:36.740Z,6.83
2023-02-03T22:46:38.705Z,7.17
2023-02-03T22:51:40.586Z,7.17
2023-02-03T22:56:42.403Z,11.07
2023-02-03T23:01:44.303Z,7.60
2023-02-03T23:06:46.088Z,6.70
2023-02-03T23:11:47.867Z,7.47
2023-02-03T23:16:49.745Z,7.43
2023-02-03T23:21:51.671Z,9.10
2023-02-03T23:26:53.647Z,10.10
2023-02-03T23:31:55.598Z,9.07
2023-02-03T23:36:57.576Z,6.00
2023-02-03T23:41:59.450Z,7.77
2023-02-03T23:47:01.285Z,8.77
2023-02-03T23:52:03.233Z,10.73
2023-02-03T23:57:05.190Z,7.37
